Time;durP1;ratioP1;P1;durP2;ratioP2;P2;SDS_P1;SDS_P2;PMS_P1;PMS_P2;Temp;Humidity;BMP_temperature;BMP_pressure;BME280_temperature;BME280_humidity;BME280_pressure;Samples;Min_cycle;Max_cycle;Signal;HPM_P1;HPM_P2
2022/08/29 00:00:15;;;;;;;0.40;0.20;;;29.10;37.50;;;;;;5054278;28;20041;-85
2022/08/29 00:02:43;;;;;;;0.10;0.10;;;29.00;37.40;;;;;;5055038;28;20049;-84
2022/08/29 00:05:10;;;;;;;0.70;0.20;;;29.00;37.40;;;;;;5056983;28;20116;-85
2022/08/29 00:07:37;;;;;;;1.08;0.20;;;29.00;37.40;;;;;;5063641;28;20501;-84
2022/08/29 00:10:06;;;;;;;0.22;0.10;;;29.00;37.40;;;;;;5044987;28;20068;-85
2022/08/29 00:12:33;;;;;;;0.50;0.20;;;29.00;37.40;;;;;;5060351;28;20059;-86
2022/08/29 00:15:00;;;;;;;0.30;0.20;;;29.00;37.40;;;;;;5063337;28;20059;-86
2022/08/29 00:17:27;;;;;;;0.40;0.10;;;29.00;37.40;;;;;;5046066;28;20049;-86
2022/08/29 00:19:56;;;;;;;2.05;0.10;;;29.00;37.40;;;;;;5065577;28;20052;-85
2022/08/29 00:22:23;;;;;;;0.20;0.10;;;29.00;37.40;;;;;;5064746;28;20473;-86
2022/08/29 00:24:50;;;;;;;2.10;0.10;;;29.00;37.40;;;;;;5056401;28;20037;-84
2022/08/29 00:27:17;;;;;;;0.32;0.28;;;29.00;37.40;;;;;;5052670;28;20056;-84
2022/08/29 00:29:44;;;;;;;0.35;0.10;;;29.00;37.40;;;;;;5053217;28;20437;-84
2022/08/29 00:32:11;;;;;;;0.43;0.10;;;29.00;37.40;;;;;;5053674;28;20064;-85
2022/08/29 00:34:38;;;;;;;0.20;0.10;;;29.00;37.40;;;;;;5058050;28;20037;-84
2022/08/29 00:37:07;;;;;;;0.95;0.20;;;29.00;37.40;;;;;;5055514;28;20049;-84
2022/08/29 00:39:34;;;;;;;0.63;0.10;;;28.90;37.40;;;;;;5059081;28;20078;-85
2022/08/29 00:42:01;;;;;;;0.10;0.10;;;28.90;37.30;;;;;;5065476;28;20045;-86
2022/08/29 00:44:28;;;;;;;0.10;0.10;;;28.90;37.30;;;;;;5066779;28;20060;-86
2022/08/29 00:46:58;;;;;;;0.98;0.20;;;28.90;37.30;;;;;;5056300;28;20053;-86
2022/08/29 00:49:32;;;;;;;0.10;0.10;;;28.90;37.30;;;;;;5047058;28;20053;-86
2022/08/29 00:52:05;;;;;;;1.35;0.10;;;28.90;37.30;;;;;;5051483;28;20041;-80
2022/08/29 00:54:34;;;;;;;0.47;0.10;;;28.90;37.30;;;;;;5057891;28;20084;-84
2022/08/29 00:57:02;;;;;;;0.65;0.10;;;28.90;37.30;;;;;;5054833;28;20398;-86
2022/08/29 00:59:32;;;;;;;0.50;0.20;;;28.90;37.30;;;;;;5053712;28;20045;-84
2022/08/29 01:02:00;;;;;;;0.30;0.10;;;28.80;37.20;;;;;;5043301;28;20057;-85
2022/08/29 01:04:27;;;;;;;1.63;1.15;;;28.80;37.20;;;;;;5053481;28;20039;-85
2022/08/29 01:06:54;;;;;;;0.60;0.10;;;28.80;37.30;;;;;;5033498;28;20054;-85
2022/08/29 01:09:22;;;;;;;0.65;0.10;;;28.80;37.20;;;;;;5033816;28;20067;-85
2022/08/29 01:14:36;;;;;;;0.45;0.15;;;28.80;37.20;;;;;;5052662;28;20041;-82
2022/08/29 01:17:08;;;;;;;0.10;0.10;;;28.80;37.20;;;;;;5052021;28;20456;-85
2022/08/29 01:19:42;;;;;;;0.22;0.10;;;28.80;37.20;;;;;;5051911;28;20048;-84
2022/08/29 01:22:19;;;;;;;0.57;0.10;;;28.80;37.20;;;;;;5050423;28;20072;-84
2022/08/29 01:24:50;;;;;;;0.30;0.10;;;28.80;37.20;;;;;;5051630;28;20076;-85
2022/08/29 01:27:20;;;;;;;0.30;0.10;;;28.80;37.20;;;;;;5046833;28;20041;-84
2022/08/29 01:29:48;;;;;;;0.55;0.17;;;28.80;37.30;;;;;;5051896;28;20033;-84
2022/08/29 01:32:15;;;;;;;0.25;0.10;;;28.70;37.20;;;;;;5042524;28;20626;-85
2022/08/29 01:34:43;;;;;;;0.35;0.25;;;28.80;37.30;;;;;;5042975;28;20524;-84
2022/08/29 01:37:12;;;;;;;0.60;0.10;;;28.80;37.30;;;;;;5043819;28;20123;-84
2022/08/29 01:39:41;;;;;;;0.00;0.00;;;28.80;37.30;;;;;;5049318;28;20128;-82
2022/08/29 01:42:12;;;;;;;1.33;0.47;;;28.70;37.20;;;;;;5051477;28;20049;-83
2022/08/29 01:44:40;;;;;;;0.20;0.10;;;28.80;37.30;;;;;;5050849;28;20041;-83
2022/08/29 01:47:08;;;;;;;0.30;0.10;;;28.70;37.20;;;;;;5036531;28;20387;-82
2022/08/29 01:49:36;;;;;;;0.30;0.10;;;28.70;37.20;;;;;;5031169;28;20323;-83
2022/08/29 01:52:05;;;;;;;1.10;0.10;;;28.70;37.20;;;;;;5030787;28;20046;-83
2022/08/29 01:54:33;;;;;;;0.47;0.10;;;28.80;37.30;;;;;;5037226;28;20072;-83
2022/08/29 01:57:01;;;;;;;1.02;0.10;;;28.70;37.20;;;;;;5050555;28;20039;-82
2022/08/29 01:59:31;;;;;;;0.00;0.00;;;28.70;37.20;;;;;;5050552;28;20052;-82
2022/08/29 02:02:02;;;;;;;0.22;0.10;;;28.70;37.20;;;;;;5050960;28;20071;-82
2022/08/29 02:04:29;;;;;;;0.13;0.13;;;28.70;37.20;;;;;;5050183;28;20044;-81
2022/08/29 02:06:56;;;;;;;0.22;0.10;;;28.70;37.20;;;;;;5050335;28;20051;-82
2022/08/29 02:09:24;;;;;;;0.73;0.10;;;28.70;37.20;;;;;;5050260;28;20088;-82
2022/08/29 02:11:53;;;;;;;0.35;0.10;;;28.70;37.20;;;;;;5044920;28;20049;-82
2022/08/29 02:14:21;;;;;;;0.30;0.10;;;28.70;37.20;;;;;;5032282;28;20120;-82
2022/08/29 02:16:49;;;;;;;0.10;0.10;;;28.70;37.80;;;;;;5013536;28;20051;-82
2022/08/29 02:19:17;;;;;;;0.20;0.10;;;28.70;37.10;;;;;;5031169;28;20777;-82
2022/08/29 02:21:44;;;;;;;0.20;0.10;;;28.60;37.10;;;;;;5030718;28;20048;-82
2022/08/29 02:24:11;;;;;;;0.70;0.50;;;28.70;37.10;;;;;;5046769;28;20081;-85
2022/08/29 02:26:38;;;;;;;1.85;0.10;;;28.60;37.00;;;;;;5049172;28;20040;-86
2022/08/29 02:29:05;;;;;;;0.10;0.10;;;28.60;37.10;;;;;;5049619;28;20049;-86
2022/08/29 02:31:34;;;;;;;0.25;0.10;;;28.60;37.00;;;;;;5053085;28;20528;-87
2022/08/29 02:34:02;;;;;;;1.38;0.05;;;28.60;37.00;;;;;;5050953;28;20052;-87
2022/08/29 02:36:29;;;;;;;0.25;0.08;;;28.60;37.00;;;;;;5043690;28;20037;-83
2022/08/29 02:38:56;;;;;;;0.35;0.10;;;28.60;37.00;;;;;;5044777;28;20938;-82
2022/08/29 02:41:23;;;;;;;0.35;0.10;;;28.60;37.00;;;;;;5054683;28;20041;-82
2022/08/29 02:43:50;;;;;;;0.50;0.10;;;28.60;37.60;;;;;;5054774;28;20102;-82
2022/08/29 02:46:19;;;;;;;0.28;0.10;;;28.60;37.00;;;;;;5054430;28;20043;-82
2022/08/29 02:48:47;;;;;;;0.10;0.10;;;28.60;37.60;;;;;;5053916;28;20048;-85
2022/08/29 02:51:20;;;;;;;0.30;0.10;;;28.60;37.00;;;;;;5056772;28;20565;-85
2022/08/29 02:53:47;;;;;;;0.43;0.10;;;28.60;37.00;;;;;;5056386;28;20053;-85
2022/08/29 02:56:15;;;;;;;0.10;0.10;;;28.60;37.10;;;;;;5056547;28;20053;-85
2022/08/29 02:58:42;;;;;;;1.65;0.50;;;28.60;37.10;;;;;;5058212;28;20071;-84
2022/08/29 03:01:10;;;;;;;0.60;0.10;;;28.50;37.00;;;;;;5039779;28;20068;-85
2022/08/29 03:03:37;;;;;;;0.82;0.10;;;28.60;37.10;;;;;;5057559;28;20057;-85
2022/08/29 03:06:04;;;;;;;1.65;0.10;;;28.50;37.10;;;;;;5057124;28;20128;-85
2022/08/29 03:08:33;;;;;;;0.10;0.10;;;28.50;37.00;;;;;;5056538;28;20081;-86
2022/08/29 03:11:00;;;;;;;0.25;0.10;;;28.50;37.10;;;;;;5056873;28;20048;-84
2022/08/29 03:13:27;;;;;;;0.10;0.10;;;28.50;37.10;;;;;;5056546;28;20476;-85
2022/08/29 03:15:54;;;;;;;0.10;0.10;;;28.50;37.10;;;;;;5058281;28;20041;-85
2022/08/29 03:18:21;;;;;;;0.98;0.10;;;28.50;37.10;;;;;;5049006;28;20124;-84
2022/08/29 03:20:48;;;;;;;1.75;0.10;;;28.50;37.10;;;;;;5056464;28;20037;-86
2022/08/29 03:23:15;;;;;;;0.38;0.10;;;28.50;37.10;;;;;;5065031;28;20048;-86
2022/08/29 03:25:44;;;;;;;1.35;0.20;;;28.50;37.10;;;;;;5071058;28;20037;-86
2022/08/29 03:28:11;;;;;;;0.20;0.10;;;28.50;37.10;;;;;;5072688;28;20096;-85
2022/08/29 03:30:38;;;;;;;1.30;0.15;;;28.50;37.70;;;;;;5060608;28;20044;-86
2022/08/29 03:33:06;;;;;;;0.57;0.10;;;28.50;37.00;;;;;;5073224;28;20053;-88
2022/08/29 03:35:33;;;;;;;0.43;0.05;;;28.50;37.00;;;;;;5073365;28;20119;-86
2022/08/29 03:38:00;;;;;;;0.90;0.50;;;28.50;37.00;;;;;;5070608;28;20072;-87
2022/08/29 03:40:27;;;;;;;0.43;0.10;;;28.50;37.00;;;;;;5068620;28;20029;-85
2022/08/29 03:42:56;;;;;;;0.15;0.15;;;28.50;37.00;;;;;;5051867;28;20037;-86
2022/08/29 03:45:24;;;;;;;0.28;0.10;;;28.50;37.00;;;;;;5071050;28;20116;-86
2022/08/29 03:47:52;;;;;;;0.10;0.10;;;28.50;37.00;;;;;;5056751;28;20091;-84
2022/08/29 03:50:20;;;;;;;0.20;0.10;;;28.50;37.00;;;;;;5037453;28;20064;-82
2022/08/29 03:52:48;;;;;;;0.40;0.10;;;28.40;36.90;;;;;;5052635;28;20053;-82
2022/08/29 03:55:15;;;;;;;0.30;0.10;;;28.50;37.00;;;;;;5038419;28;20515;-82
2022/08/29 03:57:44;;;;;;;0.50;0.10;;;28.40;36.90;;;;;;5033527;28;20049;-82
2022/08/29 04:00:16;;;;;;;1.88;0.10;;;28.40;36.90;;;;;;5032535;28;20061;-84
2022/08/29 04:02:45;;;;;;;0.10;0.10;;;28.40;36.90;;;;;;5032932;28;20053;-83
2022/08/29 04:05:12;;;;;;;0.08;0.08;;;28.40;36.90;;;;;;5034764;28;20414;-83
2022/08/29 04:07:43;;;;;;;0.22;0.10;;;28.40;36.90;;;;;;5032371;28;20569;-84
2022/08/29 04:10:12;;;;;;;0.30;0.10;;;28.40;36.90;;;;;;5051487;28;20513;-83
2022/08/29 04:12:39;;;;;;;0.20;0.10;;;28.40;36.90;;;;;;5053188;28;20493;-83
2022/08/29 04:15:07;;;;;;;0.85;0.10;;;28.40;36.90;;;;;;5052543;28;20049;-83
2022/08/29 04:17:36;;;;;;;0.43;0.10;;;28.40;36.90;;;;;;5052411;28;20041;-83
2022/08/29 04:20:06;;;;;;;0.55;0.05;;;28.40;37.00;;;;;;5052704;28;20120;-83
2022/08/29 04:22:36;;;;;;;3.10;0.10;;;28.40;37.00;;;;;;5053554;28;20053;-83
2022/08/29 04:25:05;;;;;;;0.93;0.10;;;28.40;37.00;;;;;;5052222;28;20413;-83
2022/08/29 04:27:32;;;;;;;0.10;0.10;;;28.30;37.00;;;;;;5052015;28;20041;-83
2022/08/29 04:29:59;;;;;;;0.32;0.10;;;28.30;37.00;;;;;;5033455;28;20571;-83
2022/08/29 04:32:27;;;;;;;0.93;0.10;;;28.30;37.00;;;;;;5053414;28;20519;-83
2022/08/29 04:34:58;;;;;;;1.08;0.10;;;28.30;37.10;;;;;;5052418;28;20041;-83
2022/08/29 04:37:25;;;;;;;1.00;0.45;;;28.40;37.10;;;;;;5052823;28;20045;-83
2022/08/29 04:39:52;;;;;;;2.33;0.10;;;28.30;37.10;;;;;;5052270;28;20501;-83
2022/08/29 04:42:19;;;;;;;0.85;0.20;;;28.30;37.20;;;;;;5052177;28;20048;-83
2022/08/29 04:44:47;;;;;;;1.20;0.20;;;28.30;37.20;;;;;;5051341;28;20108;-83
2022/08/29 04:47:14;;;;;;;1.00;0.30;;;28.30;37.20;;;;;;5053188;28;20517;-83
2022/08/29 04:49:42;;;;;;;0.68;0.13;;;28.30;37.20;;;;;;5052508;28;20033;-83
2022/08/29 04:52:12;;;;;;;0.10;0.10;;;28.30;37.20;;;;;;5051295;28;20041;-83
2022/08/29 04:54:40;;;;;;;0.75;0.10;;;28.30;37.20;;;;;;5051256;28;20134;-83
2022/08/29 04:57:07;;;;;;;0.13;0.10;;;28.30;37.30;;;;;;5052368;28;20042;-84
2022/08/29 04:59:34;;;;;;;0.82;0.80;;;28.30;37.30;;;;;;5051385;28;20081;-84
2022/08/29 05:02:01;;;;;;;0.40;0.03;;;28.30;37.30;;;;;;5051696;28;20041;-84
2022/08/29 05:04:28;;;;;;;0.30;0.20;;;28.30;37.30;;;;;;5054088;28;20065;-84
2022/08/29 05:06:55;;;;;;;0.20;0.10;;;28.20;37.20;;;;;;5067454;28;20037;-85
2022/08/29 05:09:24;;;;;;;2.80;0.20;;;28.20;37.20;;;;;;5051990;28;20046;-85
2022/08/29 05:11:51;;;;;;;3.33;0.80;;;28.20;37.20;;;;;;5052571;28;20577;-83
2022/08/29 05:14:18;;;;;;;0.20;0.20;;;28.20;37.20;;;;;;5061752;28;20068;-84
2022/08/29 05:16:47;;;;;;;0.20;0.10;;;28.20;37.20;;;;;;5047792;28;20141;-86
2022/08/29 05:19:15;;;;;;;1.30;0.45;;;28.20;37.20;;;;;;5055487;28;20045;-86
2022/08/29 05:21:43;;;;;;;0.20;0.10;;;28.30;37.30;;;;;;5054012;28;20037;-85
2022/08/29 05:24:12;;;;;;;0.82;0.43;;;28.20;37.20;;;;;;5055678;28;20041;-85
2022/08/29 05:26:43;;;;;;;1.02;0.63;;;28.20;37.20;;;;;;5053977;28;20120;-85
2022/08/29 05:29:12;;;;;;;0.20;0.00;;;28.20;37.20;;;;;;5052411;28;20098;-83
2022/08/29 05:31:40;;;;;;;1.48;0.10;;;28.20;37.30;;;;;;5053875;28;20037;-84
2022/08/29 05:34:09;;;;;;;0.65;0.10;;;28.20;37.20;;;;;;5052520;28;20076;-85
2022/08/29 05:36:36;;;;;;;0.75;0.20;;;28.20;37.20;;;;;;5055520;28;20045;-82
2022/08/29 05:39:04;;;;;;;0.30;0.10;;;28.20;37.20;;;;;;5054928;28;20049;-85
2022/08/29 05:41:31;;;;;;;0.88;0.10;;;28.20;37.20;;;;;;5055462;28;20036;-85
2022/08/29 05:43:59;;;;;;;0.10;0.10;;;28.20;37.20;;;;;;5056040;28;20044;-85
2022/08/29 05:46:26;;;;;;;0.28;0.20;;;28.20;37.20;;;;;;5059070;28;20067;-86
2022/08/29 05:48:53;;;;;;;0.10;0.10;;;28.20;37.20;;;;;;5057820;28;20497;-85
2022/08/29 05:51:23;;;;;;;2.53;0.10;;;28.20;37.20;;;;;;5063978;28;20013;-86
2022/08/29 05:53:50;;;;;;;0.20;0.10;;;28.20;37.20;;;;;;5074016;28;20053;-86
2022/08/29 05:56:22;;;;;;;0.63;0.10;;;28.20;37.20;;;;;;5073981;28;20076;-86
2022/08/29 05:58:49;;;;;;;0.22;0.10;;;28.20;37.20;;;;;;5074118;28;20033;-87
2022/08/29 06:01:24;;;;;;;0.10;0.10;;;28.20;37.20;;;;;;5074087;28;20052;-85
2022/08/29 06:03:51;;;;;;;1.65;0.10;;;28.20;37.20;;;;;;5073168;28;20490;-86
2022/08/29 06:06:21;;;;;;;0.15;0.15;;;28.20;37.20;;;;;;5075483;28;20060;-86
2022/08/29 06:08:48;;;;;;;0.10;0.10;;;28.20;37.20;;;;;;5075388;28;20075;-87
2022/08/29 06:11:17;;;;;;;0.43;0.10;;;28.20;37.20;;;;;;5076582;28;20063;-86
2022/08/29 06:13:44;;;;;;;0.70;0.20;;;28.20;37.20;;;;;;5077425;28;20474;-86
2022/08/29 06:16:12;;;;;;;0.80;0.10;;;28.20;37.10;;;;;;5076435;28;20053;-86
2022/08/29 06:18:41;;;;;;;0.10;0.10;;;28.20;37.20;;;;;;5077503;28;20099;-87
2022/08/29 06:21:10;;;;;;;0.10;0.10;;;28.30;37.20;;;;;;5077667;28;20071;-86
2022/08/29 06:23:37;;;;;;;0.00;0.00;;;28.20;37.20;;;;;;5076416;28;20053;-86
2022/08/29 06:26:06;;;;;;;2.28;0.10;;;28.20;37.10;;;;;;5063111;28;20037;-83
2022/08/29 06:28:34;;;;;;;0.10;0.03;;;28.20;37.10;;;;;;5043959;28;20045;-85
2022/08/29 06:31:09;;;;;;;1.55;0.10;;;28.20;37.10;;;;;;5044225;28;20049;-86
2022/08/29 06:33:36;;;;;;;0.47;0.10;;;28.20;37.10;;;;;;5041369;28;20115;-87
2022/08/29 06:36:06;;;;;;;0.50;0.10;;;28.20;37.10;;;;;;5046833;28;20632;-86
2022/08/29 06:38:34;;;;;;;0.13;0.10;;;28.20;37.10;;;;;;5045812;28;20124;-84
2022/08/29 06:41:03;;;;;;;0.75;0.10;;;28.20;37.10;;;;;;5058387;28;20516;-85
2022/08/29 06:43:30;;;;;;;0.20;0.20;;;28.20;37.10;;;;;;5063990;28;20052;-86
2022/08/29 06:45:57;;;;;;;1.55;0.10;;;28.20;37.10;;;;;;5056022;28;20052;-83
2022/08/29 06:48:25;;;;;;;0.10;0.10;;;28.20;37.10;;;;;;5056255;28;20048;-84
2022/08/29 06:50:52;;;;;;;0.77;0.20;;;28.20;37.10;;;;;;5054929;28;20506;-83
2022/08/29 06:53:21;;;;;;;0.50;0.17;;;28.30;37.10;;;;;;5056577;28;20068;-85
2022/08/29 06:55:48;;;;;;;2.35;0.08;;;28.30;37.10;;;;;;5060496;28;20045;-83
2022/08/29 06:58:15;;;;;;;0.30;0.08;;;28.30;37.10;;;;;;5061991;28;20045;-84
2022/08/29 07:00:43;;;;;;;0.55;0.28;;;28.30;37.10;;;;;;5063345;28;20045;-86
2022/08/29 07:03:11;;;;;;;0.40;0.10;;;28.30;37.10;;;;;;5061980;28;20037;-84
2022/08/29 07:05:38;;;;;;;0.20;0.20;;;28.30;37.10;;;;;;5064956;28;20057;-84
2022/08/29 07:08:05;;;;;;;0.40;0.20;;;28.30;37.10;;;;;;5065454;28;20091;-86
2022/08/29 07:10:33;;;;;;;0.30;0.10;;;28.30;37.10;;;;;;5073467;28;20037;-87
2022/08/29 07:13:00;;;;;;;0.20;0.10;;;28.40;37.10;;;;;;5056385;28;20044;-87
2022/08/29 07:15:27;;;;;;;0.10;0.10;;;28.40;37.10;;;;;;5054561;28;20049;-86
2022/08/29 07:17:54;;;;;;;1.75;0.10;;;28.40;37.10;;;;;;5054584;28;20593;-85
2022/08/29 07:20:21;;;;;;;0.55;0.10;;;28.40;37.10;;;;;;5049040;28;20041;-86
2022/08/29 07:22:50;;;;;;;0.95;0.32;;;28.40;37.10;;;;;;5035511;28;20057;-86
2022/08/29 07:25:18;;;;;;;0.20;0.10;;;28.40;37.10;;;;;;5051025;28;20080;-85
2022/08/29 07:27:47;;;;;;;1.85;0.52;;;28.40;37.10;;;;;;5054342;28;20120;-86
2022/08/29 07:30:16;;;;;;;0.20;0.10;;;28.40;37.00;;;;;;5069533;28;20055;-88
2022/08/29 07:32:44;;;;;;;0.90;0.10;;;28.40;37.00;;;;;;5075367;28;20045;-88
2022/08/29 07:35:12;;;;;;;0.88;0.20;;;28.40;37.00;;;;;;5075545;28;20052;-87
2022/08/29 07:37:39;;;;;;;0.65;0.28;;;28.40;37.00;;;;;;5075984;28;20048;-87
2022/08/29 07:40:08;;;;;;;1.70;0.10;;;28.50;37.00;;;;;;5074317;28;20100;-87
2022/08/29 07:42:36;;;;;;;0.57;0.10;;;28.50;37.00;;;;;;5072605;28;20175;-86
2022/08/29 07:45:06;;;;;;;0.95;0.10;;;28.50;37.00;;;;;;5055616;28;20040;-86
2022/08/29 07:47:33;;;;;;;1.73;0.10;;;28.50;36.90;;;;;;5055370;28;20037;-85
2022/08/29 07:50:01;;;;;;;0.15;0.10;;;28.50;36.90;;;;;;5054996;28;20047;-86
2022/08/29 07:52:28;;;;;;;0.52;0.10;;;28.50;36.80;;;;;;5055253;28;20049;-73
2022/08/29 07:54:56;;;;;;;1.92;0.20;;;28.50;36.80;;;;;;5055173;28;20051;-86
2022/08/29 07:57:23;;;;;;;0.82;0.10;;;28.60;36.90;;;;;;5053866;28;20458;-86
2022/08/29 07:59:50;;;;;;;1.45;0.20;;;28.50;36.80;;;;;;5040374;28;20038;-86
2022/08/29 08:02:19;;;;;;;0.60;0.10;;;28.60;36.80;;;;;;5069920;28;20041;-84
2022/08/29 08:04:46;;;;;;;0.77;0.50;;;28.60;36.70;;;;;;5069381;28;20105;-86
2022/08/29 08:07:13;;;;;;;1.00;0.20;;;28.60;36.70;;;;;;5069288;28;20056;-84
2022/08/29 08:09:41;;;;;;;0.10;0.10;;;28.60;36.60;;;;;;5067892;28;20053;-84
2022/08/29 08:12:08;;;;;;;0.57;0.10;;;28.70;36.60;;;;;;5045175;28;20053;-86
2022/08/29 08:14:35;;;;;;;0.20;0.10;;;28.60;36.50;;;;;;5058509;28;20049;-86
2022/08/29 08:17:03;;;;;;;0.75;0.20;;;28.70;36.60;;;;;;5061766;28;20076;-85
2022/08/29 08:19:32;;;;;;;4.68;0.20;;;28.70;36.50;;;;;;5061508;28;20105;-82
2022/08/29 08:21:59;;;;;;;0.93;0.10;;;28.70;36.50;;;;;;5033957;28;20044;-83
2022/08/29 08:24:26;;;;;;;0.20;0.20;;;28.70;36.50;;;;;;5052659;28;20044;-82
2022/08/29 08:26:53;;;;;;;3.20;0.10;;;28.70;36.50;;;;;;5051330;28;20122;-82
2022/08/29 08:29:20;;;;;;;1.42;0.10;;;28.70;36.40;;;;;;5051980;28;20041;-82
2022/08/29 08:31:49;;;;;;;0.50;0.10;;;28.70;36.40;;;;;;5051625;28;20147;-82
2022/08/29 08:34:16;;;;;;;1.00;0.20;;;28.80;36.40;;;;;;5053165;28;20037;-83
2022/08/29 08:36:45;;;;;;;0.40;0.10;;;28.80;36.40;;;;;;5042500;28;20048;-82
2022/08/29 08:39:13;;;;;;;1.60;0.20;;;28.80;36.40;;;;;;5042749;28;20051;-81
2022/08/29 08:41:49;;;;;;;0.85;0.10;;;28.80;36.40;;;;;;5051597;28;20163;-82
2022/08/29 08:44:49;;;;;;;0.30;0.10;;;28.80;36.30;;;;;;5054404;28;20041;-86
2022/08/29 08:47:22;;;;;;;0.28;0.20;;;28.80;36.20;;;;;;5052103;28;20621;-84
2022/08/29 08:49:53;;;;;;;0.20;0.10;;;28.80;36.20;;;;;;5052357;28;20079;-83
2022/08/29 08:52:27;;;;;;;0.75;0.10;;;28.80;36.20;;;;;;5063620;28;20068;-86
2022/08/29 08:55:01;;;;;;;1.75;0.10;;;28.80;36.20;;;;;;5073671;28;20041;-86
2022/08/29 08:57:38;;;;;;;0.13;0.10;;;28.80;36.10;;;;;;5074186;28;20505;-86
2022/08/29 09:00:09;;;;;;;0.20;0.10;;;28.90;36.10;;;;;;5073993;28;20037;-86
2022/08/29 09:03:01;;;;;;;0.75;0.30;;;28.90;36.10;;;;;;5073701;28;20048;-83
2022/08/29 09:05:39;;;;;;;0.47;0.10;;;28.90;36.10;;;;;;5072153;28;20045;-86
2022/08/29 09:08:18;;;;;;;1.13;0.20;;;28.90;35.70;;;;;;5072588;28;20109;-86
2022/08/29 09:10:52;;;;;;;0.75;0.13;;;28.90;36.00;;;;;;5073307;28;20040;-86
2022/08/29 09:13:34;;;;;;;1.20;0.30;;;28.90;35.90;;;;;;5073759;28;20115;-86
2022/08/29 09:16:08;;;;;;;0.70;0.10;;;29.00;36.00;;;;;;5068150;28;20104;-88
2022/08/29 09:18:37;;;;;;;2.15;0.63;;;29.00;35.90;;;;;;5071612;28;20060;-87
2022/08/29 09:21:14;;;;;;;2.15;0.10;;;29.00;35.90;;;;;;5065449;28;20080;-86
2022/08/29 09:23:45;;;;;;;3.15;0.10;;;29.00;35.80;;;;;;5067180;28;20045;-86
2022/08/29 09:26:15;;;;;;;0.82;0.10;;;29.00;35.70;;;;;;5074629;28;20033;-85
2022/08/29 09:28:42;;;;;;;0.55;0.10;;;29.00;35.70;;;;;;5056875;28;20057;-85
2022/08/29 09:31:19;;;;;;;0.98;0.20;;;29.00;35.70;;;;;;5052893;28;20029;-86
2022/08/29 09:33:51;;;;;;;1.65;0.13;;;29.00;35.70;;;;;;5050328;28;20247;-84
2022/08/29 09:36:35;;;;;;;1.10;0.20;;;29.00;35.70;;;;;;5046985;28;20056;-87
2022/08/29 09:39:16;;;;;;;0.17;0.10;;;29.10;35.70;;;;;;5061285;28;20037;-88
2022/08/29 09:41:46;;;;;;;0.55;0.10;;;29.10;35.70;;;;;;5071745;28;20037;-87
2022/08/29 09:44:19;;;;;;;1.25;0.32;;;29.10;35.70;;;;;;5068808;28;20045;-87
2022/08/29 09:46:46;;;;;;;1.50;0.20;;;29.10;35.70;;;;;;5069545;28;20040;-87
2022/08/29 09:49:17;;;;;;;0.28;0.10;;;29.10;35.80;;;;;;5070019;28;20052;-87
2022/08/29 09:51:46;;;;;;;1.95;0.30;;;29.10;35.70;;;;;;5069700;28;20057;-88
2022/08/29 09:54:23;;;;;;;0.30;0.20;;;29.10;35.80;;;;;;5071324;28;20044;-88
2022/08/29 09:56:55;;;;;;;0.60;0.10;;;29.10;35.80;;;;;;5068855;28;20045;-87
2022/08/29 09:59:28;;;;;;;1.13;0.20;;;29.10;35.80;;;;;;5070954;28;20045;-86
2022/08/29 10:02:13;;;;;;;0.65;0.20;;;29.20;35.80;;;;;;5068021;28;20037;-88
2022/08/29 10:04:42;;;;;;;2.72;0.10;;;29.20;35.80;;;;;;5066042;28;20049;-87
2022/08/29 10:07:10;;;;;;;0.68;0.20;;;29.20;35.80;;;;;;5070717;28;20045;-87
2022/08/29 10:09:39;;;;;;;0.20;0.10;;;29.20;35.70;;;;;;5067542;28;20037;-87
2022/08/29 10:12:12;;;;;;;0.22;0.10;;;29.20;35.70;;;;;;5070646;28;20416;-87
2022/08/29 10:14:47;;;;;;;2.92;0.30;;;29.20;35.70;;;;;;5072534;28;20070;-87
2022/08/29 10:20:07;;;;;;;0.10;0.10;;;29.30;35.70;;;;;;5073018;28;20037;-87
2022/08/29 10:22:40;;;;;;;0.30;0.10;;;29.20;35.70;;;;;;5072489;28;20041;-88
2022/08/29 10:25:16;;;;;;;0.57;0.57;;;29.30;35.70;;;;;;5071518;28;20272;-87
2022/08/29 10:27:50;;;;;;;2.65;0.20;;;29.30;35.60;;;;;;5058312;28;20068;-89
2022/08/29 10:30:20;;;;;;;0.77;0.10;;;29.30;35.70;;;;;;5071362;28;20048;-87
2022/08/29 10:33:08;;;;;;;1.13;0.22;;;29.30;35.60;;;;;;5070321;28;20329;-88
2022/08/29 10:35:40;;;;;;;0.38;0.35;;;29.30;35.60;;;;;;5068722;28;20044;-87
2022/08/29 10:38:16;;;;;;;3.08;0.20;;;29.40;36.30;;;;;;5069937;28;20076;-85
2022/08/29 10:40:49;;;;;;;0.50;0.30;;;29.30;35.70;;;;;;5049780;28;20097;-86
2022/08/29 10:43:33;;;;;;;2.10;0.20;;;29.30;35.70;;;;;;5070097;28;20067;-86
2022/08/29 10:46:17;;;;;;;0.20;0.10;;;29.40;35.80;;;;;;5073194;28;20044;-86
2022/08/29 10:48:50;;;;;;;0.88;0.20;;;29.40;35.80;;;;;;5071123;28;20065;-84
2022/08/29 10:51:25;;;;;;;2.05;0.10;;;29.40;35.80;;;;;;5070744;28;20045;-83
2022/08/29 10:53:57;;;;;;;2.25;0.30;;;29.50;35.80;;;;;;5068385;28;20072;-84
2022/08/29 10:56:30;;;;;;;0.47;0.28;;;29.50;35.80;;;;;;5071216;28;20109;-85
2022/08/29 10:59:07;;;;;;;2.15;0.10;;;29.50;35.80;;;;;;5070593;28;20049;-84
2022/08/29 11:01:38;;;;;;;0.30;0.30;;;29.50;35.80;;;;;;5043799;28;20484;-85
2022/08/29 11:04:17;;;;;;;0.85;0.15;;;29.50;35.80;;;;;;5065083;28;20497;-84
2022/08/29 11:06:52;;;;;;;0.57;0.20;;;29.60;36.40;;;;;;5064701;28;20037;-84
2022/08/29 11:09:24;;;;;;;0.40;0.30;;;29.60;35.90;;;;;;5055864;28;20041;-85
2022/08/29 11:12:03;;;;;;;0.10;0.10;;;29.60;35.90;;;;;;5065608;28;20110;-84
2022/08/29 11:14:36;;;;;;;0.57;0.28;;;29.60;35.80;;;;;;5066455;28;20068;-85
2022/08/29 11:17:06;;;;;;;0.10;0.10;;;29.60;35.90;;;;;;5069675;28;20041;-85
2022/08/29 11:19:42;;;;;;;3.88;0.30;;;29.60;35.80;;;;;;5069666;28;20037;-84
2022/08/29 11:22:15;;;;;;;1.23;0.25;;;29.70;35.90;;;;;;5060232;28;20055;-83
2022/08/29 11:24:44;;;;;;;1.55;0.20;;;29.70;35.90;;;;;;5069014;28;20041;-85
2022/08/29 11:27:22;;;;;;;0.40;0.28;;;29.70;35.90;;;;;;5072422;28;20083;-85
2022/08/29 11:29:57;;;;;;;0.20;0.10;;;29.70;36.40;;;;;;5074110;28;20052;-85
2022/08/29 11:32:43;;;;;;;0.30;0.20;;;29.80;35.90;;;;;;5074509;28;20037;-86
2022/08/29 11:35:20;;;;;;;1.40;0.30;;;29.80;35.80;;;;;;5075049;28;20041;-87
2022/08/29 11:38:08;;;;;;;2.05;0.13;;;29.80;35.90;;;;;;5075047;28;20156;-86
2022/08/29 11:40:49;;;;;;;1.55;0.10;;;29.80;35.80;;;;;;5075379;28;20043;-85
2022/08/29 11:43:22;;;;;;;1.08;0.40;;;29.80;35.80;;;;;;5073282;28;20044;-85
2022/08/29 11:45:58;;;;;;;0.20;0.20;;;29.90;35.90;;;;;;5070391;28;20041;-84
2022/08/29 11:48:34;;;;;;;;;;;29.90;35.90;;;;;;5070730;28;20056;-88
2022/08/29 11:51:27;;;;;;;2.28;0.57;;;29.90;35.90;;;;;;5062827;28;20337;-86
2022/08/29 11:53:54;;;;;;;1.42;0.20;;;29.90;35.90;;;;;;5068203;28;20040;-86
2022/08/29 11:56:26;;;;;;;0.98;0.15;;;29.90;35.90;;;;;;5056513;28;20049;-86
2022/08/29 11:58:56;;;;;;;1.17;0.35;;;30.00;35.90;;;;;;5055789;28;20044;-86
2022/08/29 12:01:55;;;;;;;0.45;0.10;;;30.00;35.90;;;;;;5057305;28;20105;-87
2022/08/29 12:04:51;;;;;;;0.55;0.25;;;30.00;35.80;;;;;;5049295;28;20521;-85
2022/08/29 12:07:20;;;;;;;0.93;0.20;;;30.10;35.90;;;;;;5054849;28;20047;-85
2022/08/29 12:09:53;;;;;;;0.65;0.65;;;30.10;35.90;;;;;;5054917;28;20045;-86
2022/08/29 12:12:46;;;;;;;0.35;0.20;;;30.10;35.80;;;;;;5055525;28;20053;-86
2022/08/29 12:15:52;;;;;;;0.25;0.20;;;30.20;35.80;;;;;;5055700;28;20509;-86
2022/08/29 12:18:33;;;;;;;2.03;0.43;;;30.20;35.80;;;;;;5056417;28;20045;-87
2022/08/29 12:21:01;;;;;;;0.30;0.10;;;30.20;35.80;;;;;;5049754;28;20061;-86
2022/08/29 12:23:31;;;;;;;0.43;0.10;;;30.20;35.90;;;;;;5040691;28;20049;-85
2022/08/29 12:26:01;;;;;;;0.60;0.30;;;30.20;35.70;;;;;;5041655;28;20045;-83
2022/08/29 12:28:33;;;;;;;1.42;0.65;;;30.30;35.80;;;;;;5054958;28;20041;-84
2022/08/29 12:31:22;;;;;;;0.88;0.20;;;30.30;35.70;;;;;;5055079;28;20136;-86
2022/08/29 12:34:02;;;;;;;0.20;0.17;;;30.30;35.70;;;;;;5047265;28;20076;-86
2022/08/29 12:36:40;;;;;;;0.50;0.32;;;30.30;35.60;;;;;;5045251;28;20521;-84
2022/08/29 12:39:22;;;;;;;0.57;0.57;;;30.40;35.70;;;;;;5050309;28;20033;-82
2022/08/29 12:42:15;;;;;;;0.63;0.20;;;30.40;35.70;;;;;;5066128;28;20045;-87
2022/08/29 12:44:46;;;;;;;1.63;0.20;;;30.40;35.60;;;;;;5070223;28;20045;-87
2022/08/29 12:47:22;;;;;;;1.48;0.30;;;30.50;35.70;;;;;;5070692;28;20111;-86
2022/08/29 12:49:52;;;;;;;0.82;0.57;;;30.50;35.60;;;;;;5062558;28;20073;-85
2022/08/29 12:52:26;;;;;;;0.25;0.20;;;30.50;35.70;;;;;;5048983;28;20061;-86
2022/08/29 12:54:54;;;;;;;2.05;0.30;;;30.50;35.60;;;;;;5069320;28;20498;-86
2022/08/29 12:57:23;;;;;;;2.30;0.43;;;30.60;35.70;;;;;;5073122;28;20052;-86
2022/08/29 12:59:52;;;;;;;0.30;0.20;;;30.60;35.60;;;;;;5069539;28;20051;-84
2022/08/29 13:02:27;;;;;;;1.02;0.20;;;30.70;35.60;;;;;;5063425;28;20061;-86
2022/08/29 13:04:55;;;;;;;2.42;0.30;;;30.70;35.60;;;;;;5073307;28;20029;-87
2022/08/29 13:07:22;;;;;;;1.30;0.20;;;30.70;35.60;;;;;;5074286;28;20065;-87
2022/08/29 13:09:51;;;;;;;1.38;0.50;;;30.70;35.60;;;;;;5065461;28;20056;-84